createdAt,value
2019-01-17T00:02:09.068Z,3.30
2019-01-17T00:05:15.256Z,3.40
2019-01-17T00:11:19.865Z,3.50
2019-01-17T00:14:24.413Z,3.40
2019-01-17T00:17:31.715Z,3.40
2019-01-17T00:20:31.507Z,3.50
2019-01-17T00:23:34.273Z,3.50
2019-01-17T00:26:34.338Z,3.50
2019-01-17T00:29:34.048Z,3.50
2019-01-17T00:32:34.342Z,3.50
2019-01-17T00:35:36.739Z,3.60
2019-01-17T00:38:36.502Z,3.60
2019-01-17T00:41:39.061Z,3.50
2019-01-17T00:44:39.101Z,3.50
2019-01-17T00:47:39.272Z,3.60
2019-01-17T00:50:44.872Z,3.50
2019-01-17T00:53:45.079Z,3.50
2019-01-17T00:56:44.789Z,3.40
2019-01-17T00:59:44.274Z,3.40
2019-01-17T01:02:44.224Z,3.40
2019-01-17T01:05:46.556Z,3.50
2019-01-17T01:08:46.829Z,3.50
2019-01-17T01:11:50.139Z,3.50
2019-01-17T01:14:50.458Z,3.60
2019-01-17T01:17:53.536Z,3.60
2019-01-17T01:23:55.863Z,3.70
2019-01-17T01:26:55.867Z,3.60
2019-01-17T01:35:57.542Z,3.50
2019-01-17T01:48:08.818Z,3.50
2019-01-17T01:54:09.600Z,3.50
2019-01-17T01:56:51.124Z,3.50
2019-01-17T01:59:31.953Z,3.30
2019-01-17T02:02:12.672Z,3.20
2019-01-17T02:04:53.511Z,3.00
2019-01-17T02:07:34.060Z,2.80
2019-01-17T02:10:14.933Z,2.80
2019-01-17T02:12:55.604Z,2.70
2019-01-17T02:15:36.164Z,2.90
2019-01-17T02:18:16.776Z,2.90
2019-01-17T02:20:56.268Z,2.90
2019-01-17T02:26:44.388Z,2.80
2019-01-17T02:29:25.761Z,2.80
2019-01-17T02:32:06.422Z,2.80
2019-01-17T02:34:47.760Z,2.80
2019-01-17T02:37:28.550Z,2.80
2019-01-17T02:40:09.736Z,2.80
2019-01-17T02:42:51.013Z,2.70
2019-01-17T02:45:31.670Z,2.70
2019-01-17T02:48:12.900Z,2.70
2019-01-17T02:50:53.544Z,2.70
2019-01-17T02:53:34.203Z,2.70
2019-01-17T02:56:15.193Z,2.70
2019-01-17T02:58:55.829Z,2.70
2019-01-17T03:01:37.095Z,2.60
2019-01-17T03:04:18.324Z,2.60
2019-01-17T03:06:59.125Z,2.60
2019-01-17T03:09:40.479Z,2.60
2019-01-17T03:12:19.955Z,2.60
2019-01-17T03:17:55.090Z,2.60
2019-01-17T03:20:35.620Z,2.60
2019-01-17T03:23:16.254Z,2.60
2019-01-17T03:25:57.670Z,2.70
2019-01-17T03:28:39.189Z,2.70
2019-01-17T03:31:19.783Z,2.70
2019-01-17T03:34:01.084Z,2.60
2019-01-17T03:36:41.753Z,2.60
2019-01-17T03:39:23.110Z,2.60
2019-01-17T03:42:03.610Z,2.60
2019-01-17T03:44:45.068Z,2.60
2019-01-17T03:47:24.482Z,2.60
2019-01-17T03:50:05.121Z,2.60
2019-01-17T03:52:46.133Z,2.60
2019-01-17T03:55:27.836Z,2.60
2019-01-17T03:58:09.094Z,2.60
2019-01-17T04:00:48.649Z,2.50
2019-01-17T04:03:29.202Z,2.50
2019-01-17T04:06:09.821Z,2.50
2019-01-17T04:08:51.317Z,2.50
2019-01-17T04:11:30.768Z,2.40
2019-01-17T04:17:05.724Z,2.40
2019-01-17T04:19:46.476Z,2.40
2019-01-17T04:22:27.978Z,2.40
2019-01-17T04:25:09.684Z,2.50
2019-01-17T04:27:50.977Z,2.50
2019-01-17T04:30:30.452Z,2.60
2019-01-17T04:33:18.856Z,2.50
2019-01-17T04:36:00.180Z,2.60
2019-01-17T04:38:41.436Z,2.60
2019-01-17T04:41:22.296Z,2.70
2019-01-17T04:44:03.040Z,2.60
2019-01-17T04:46:43.791Z,2.60
2019-01-17T04:49:25.284Z,2.60
2019-01-17T04:52:05.824Z,2.60
2019-01-17T04:54:46.625Z,2.50
2019-01-17T04:57:27.153Z,2.40
2019-01-17T05:00:08.341Z,2.40
2019-01-17T05:02:49.638Z,2.40
2019-01-17T05:05:30.848Z,2.40
2019-01-17T05:08:11.490Z,2.40
2019-01-17T05:10:52.020Z,2.70
2019-01-17T05:13:32.500Z,2.70
2019-01-17T05:16:13.096Z,2.70
2019-01-17T05:18:53.924Z,2.70
2019-01-17T05:21:35.367Z,2.60
2019-01-17T05:24:16.018Z,2.50
2019-01-17T05:26:56.589Z,2.50
2019-01-17T05:29:37.766Z,2.40
2019-01-17T05:32:18.400Z,2.40
2019-01-17T05:34:59.771Z,2.40
2019-01-17T05:37:40.588Z,2.40
2019-01-17T05:40:21.888Z,2.40
2019-01-17T05:43:02.754Z,2.40
2019-01-17T05:45:43.276Z,2.30
2019-01-17T05:48:23.826Z,2.30
2019-01-17T05:51:04.589Z,2.30
2019-01-17T05:53:45.552Z,2.30
2019-01-17T05:56:26.136Z,2.30
2019-01-17T05:59:06.692Z,2.30
2019-01-17T06:01:47.996Z,2.30
2019-01-17T06:04:28.727Z,2.20
2019-01-17T06:07:09.349Z,2.20
2019-01-17T06:09:48.853Z,2.10
2019-01-17T06:12:37.236Z,2.10
2019-01-17T06:18:13.537Z,2.10
2019-01-17T06:20:54.088Z,2.20
2019-01-17T06:23:33.525Z,2.60
2019-01-17T06:26:14.129Z,3.20
2019-01-17T06:28:54.775Z,3.70
2019-01-17T06:31:36.448Z,4.20
2019-01-17T06:34:17.942Z,4.90
2019-01-17T06:36:59.241Z,5.30
2019-01-17T06:39:39.885Z,5.60
2019-01-17T06:42:20.731Z,5.80
2019-01-17T06:45:01.433Z,5.80
2019-01-17T06:47:42.253Z,5.90
2019-01-17T06:50:22.924Z,6.00
2019-01-17T06:53:04.138Z,6.10
2019-01-17T06:55:44.822Z,6.20
2019-01-17T06:58:25.552Z,6.20
2019-01-17T07:01:06.839Z,6.30
2019-01-17T07:03:47.609Z,6.40
2019-01-17T07:06:28.877Z,6.40
2019-01-17T07:09:10.293Z,6.50
2019-01-17T07:11:51.461Z,6.40
2019-01-17T07:14:32.096Z,6.40
2019-01-17T07:17:13.489Z,6.30
2019-01-17T07:19:55.141Z,6.30
2019-01-17T07:22:36.457Z,6.30
2019-01-17T07:25:17.691Z,6.40
2019-01-17T07:27:58.392Z,6.30
2019-01-17T07:30:39.348Z,6.30
2019-01-17T07:33:20.754Z,6.60
2019-01-17T07:36:01.925Z,6.60
2019-01-17T07:38:43.407Z,6.50
2019-01-17T07:41:24.029Z,6.50
2019-01-17T07:44:04.562Z,6.40
2019-01-17T07:46:45.888Z,6.40
2019-01-17T07:49:27.240Z,6.30
2019-01-17T07:52:07.864Z,6.20
2019-01-17T07:54:48.658Z,6.20
2019-01-17T07:57:29.301Z,6.10
2019-01-17T08:00:09.829Z,6.10
2019-01-17T08:02:50.389Z,6.10
2019-01-17T08:05:31.001Z,6.10
2019-01-17T08:08:11.648Z,6.10
2019-01-17T08:10:52.561Z,6.10
2019-01-17T08:13:33.881Z,6.10
2019-01-17T08:16:14.412Z,6.00
2019-01-17T08:18:55.256Z,6.00
2019-01-17T08:21:34.724Z,6.00
2019-01-17T08:24:23.156Z,6.00
2019-01-17T08:27:04.520Z,6.00
2019-01-17T08:29:45.745Z,6.10
2019-01-17T08:32:27.280Z,6.10
2019-01-17T08:35:07.968Z,6.20
2019-01-17T08:37:48.848Z,6.30
2019-01-17T08:40:29.313Z,6.40
2019-01-17T08:43:10.069Z,6.50
2019-01-17T08:45:49.510Z,6.50
2019-01-17T08:51:24.660Z,6.60
2019-01-17T08:54:05.424Z,6.60
2019-01-17T08:56:44.849Z,6.70
2019-01-17T08:59:25.961Z,6.90
2019-01-17T09:02:07.369Z,6.90
2019-01-17T09:04:47.988Z,7.10
2019-01-17T09:07:28.681Z,7.20
2019-01-17T09:10:09.341Z,7.30
2019-01-17T09:12:49.920Z,7.50
2019-01-17T09:15:30.701Z,7.50
2019-01-17T09:18:12.172Z,7.60
2019-01-17T09:20:52.947Z,7.70
2019-01-17T09:23:32.572Z,7.70
2019-01-17T09:29:07.944Z,7.90
2019-01-17T09:31:48.567Z,8.00
2019-01-17T09:34:29.387Z,8.10
2019-01-17T09:37:10.860Z,8.20
2019-01-17T09:39:52.229Z,8.20
2019-01-17T09:42:33.477Z,8.20
2019-01-17T09:45:14.907Z,8.20
2019-01-17T09:47:55.716Z,8.30
2019-01-17T09:50:36.484Z,8.30
2019-01-17T09:53:17.145Z,8.40
2019-01-17T09:55:58.533Z,8.40
2019-01-17T09:58:39.109Z,8.50
2019-01-17T10:01:18.580Z,8.70
2019-01-17T10:07:07.023Z,8.90
2019-01-17T10:09:47.588Z,9.00
2019-01-17T10:12:28.678Z,9.00
2019-01-17T10:15:09.974Z,9.00
2019-01-17T10:17:51.153Z,9.00
2019-01-17T10:20:31.957Z,8.90
2019-01-17T10:23:13.440Z,9.00
2019-01-17T10:25:54.248Z,8.90
2019-01-17T10:28:35.014Z,8.90
2019-01-17T10:31:15.566Z,8.90
2019-01-17T10:33:56.286Z,9.00
2019-01-17T10:40:13.824Z,9.00
2019-01-17T10:43:21.224Z,9.10
2019-01-17T10:46:02.625Z,9.20
2019-01-17T10:48:43.329Z,9.30
2019-01-17T10:51:24.044Z,9.40
2019-01-17T10:54:04.845Z,9.40
2019-01-17T10:56:45.666Z,9.50
2019-01-17T10:59:26.310Z,9.60
2019-01-17T11:02:07.401Z,9.70
2019-01-17T11:04:48.812Z,10.00
2019-01-17T11:07:31.134Z,10.20
2019-01-17T11:10:12.484Z,10.30
2019-01-17T11:12:53.881Z,10.40
2019-01-17T11:18:55.685Z,10.60
2019-01-17T11:21:36.556Z,10.70
2019-01-17T11:24:17.166Z,10.80
2019-01-17T11:26:58.547Z,10.90
2019-01-17T11:29:40.028Z,11.00
2019-01-17T11:32:21.212Z,11.10
2019-01-17T11:35:01.930Z,11.10
2019-01-17T11:37:43.352Z,11.30
2019-01-17T11:40:23.926Z,11.30
2019-01-17T11:43:05.324Z,11.40
2019-01-17T11:45:45.844Z,11.60
2019-01-17T11:48:26.706Z,11.70
2019-01-17T11:51:08.015Z,11.70
2019-01-17T11:53:49.451Z,11.80
2019-01-17T11:56:29.925Z,12.00
2019-01-17T11:59:10.811Z,12.00
2019-01-17T12:01:51.844Z,12.20
2019-01-17T12:04:30.926Z,12.30
2019-01-17T12:10:25.960Z,12.50
2019-01-17T12:13:07.393Z,12.60
2019-01-17T12:15:48.132Z,12.60
2019-01-17T12:18:28.857Z,12.80
2019-01-17T12:21:09.773Z,12.80
2019-01-17T12:23:50.516Z,13.00
2019-01-17T12:26:31.845Z,13.10
2019-01-17T12:29:12.348Z,13.30
2019-01-17T12:31:53.092Z,13.50
2019-01-17T12:34:34.311Z,13.60
2019-01-17T12:37:15.676Z,13.80
2019-01-17T12:39:56.404Z,13.90
2019-01-17T12:42:37.696Z,14.00
2019-01-17T12:45:18.289Z,14.00
2019-01-17T12:47:58.892Z,14.30
2019-01-17T12:50:39.504Z,14.40
2019-01-17T12:53:20.515Z,14.50
2019-01-17T12:56:00.044Z,14.60
2019-01-17T12:58:40.940Z,14.90
2019-01-17T13:01:22.306Z,14.90
2019-01-17T13:04:03.088Z,14.90
2019-01-17T13:06:43.925Z,15.00
2019-01-17T13:09:23.432Z,15.00
2019-01-17T13:14:58.596Z,15.70
2019-01-17T13:17:39.217Z,16.00
2019-01-17T13:20:19.857Z,15.90
2019-01-17T13:23:01.279Z,16.10
2019-01-17T13:25:41.968Z,16.10
2019-01-17T13:28:23.646Z,16.40
2019-01-17T13:31:05.042Z,16.60
2019-01-17T13:33:45.696Z,16.30
2019-01-17T13:36:26.265Z,16.50
2019-01-17T13:39:06.832Z,16.70
2019-01-17T13:41:48.177Z,17.10
2019-01-17T13:44:28.888Z,17.10
2019-01-17T13:47:10.121Z,17.30
2019-01-17T13:49:50.909Z,17.50
2019-01-17T13:52:31.538Z,17.60
2019-01-17T13:55:12.857Z,18.10
2019-01-17T13:57:54.344Z,18.80
2019-01-17T14:00:35.716Z,19.40
2019-01-17T14:03:17.177Z,19.70
2019-01-17T14:05:57.976Z,20.20
2019-01-17T14:08:39.404Z,20.40
2019-01-17T14:11:20.000Z,21.10
2019-01-17T14:14:00.573Z,21.70
2019-01-17T14:16:41.192Z,21.80
2019-01-17T14:19:21.753Z,21.90
2019-01-17T14:22:03.420Z,22.00
2019-01-17T14:24:44.943Z,21.50
2019-01-17T14:27:25.792Z,20.40
2019-01-17T14:30:06.616Z,19.10
2019-01-17T14:32:47.874Z,17.90
2019-01-17T14:35:28.435Z,16.60
2019-01-17T14:38:09.114Z,15.60
2019-01-17T14:40:49.680Z,14.90
2019-01-17T14:43:30.552Z,14.40
2019-01-17T14:46:11.181Z,13.90
2019-01-17T14:48:52.126Z,13.60
2019-01-17T14:51:33.456Z,13.20
2019-01-17T14:54:12.948Z,13.00
2019-01-17T14:59:48.425Z,12.40
2019-01-17T15:02:29.252Z,12.20
2019-01-17T15:05:10.195Z,11.90
2019-01-17T15:07:51.517Z,11.80
2019-01-17T15:10:32.845Z,11.60
2019-01-17T15:13:13.648Z,11.40
2019-01-17T15:15:55.006Z,11.30
2019-01-17T15:18:35.552Z,11.10
2019-01-17T15:21:16.296Z,11.00
2019-01-17T15:23:56.984Z,10.80
2019-01-17T15:26:37.625Z,10.60
2019-01-17T15:29:18.272Z,10.40
2019-01-17T15:31:58.957Z,10.20
2019-01-17T15:34:39.480Z,10.00
2019-01-17T15:37:21.156Z,9.80
2019-01-17T15:40:02.709Z,9.60
2019-01-17T15:42:43.981Z,9.50
2019-01-17T15:45:24.533Z,9.30
2019-01-17T15:48:05.668Z,9.10
2019-01-17T15:50:47.165Z,9.10
2019-01-17T15:53:28.344Z,8.90
2019-01-17T15:56:09.264Z,8.70
2019-01-17T15:58:50.767Z,8.50
2019-01-17T16:01:31.798Z,8.40
2019-01-17T16:04:13.087Z,8.40
2019-01-17T16:06:54.572Z,8.30
2019-01-17T16:09:35.969Z,8.30
2019-01-17T16:12:17.468Z,8.40
2019-01-17T16:14:58.304Z,8.20
2019-01-17T16:17:39.523Z,8.00
2019-01-17T16:20:20.656Z,7.90
2019-01-17T16:23:02.041Z,7.80
2019-01-17T16:25:42.680Z,7.70
2019-01-17T16:28:23.374Z,7.70
2019-01-17T16:31:04.122Z,7.60
2019-01-17T16:33:45.200Z,7.50
2019-01-17T16:36:26.677Z,7.40
2019-01-17T16:39:08.066Z,7.30
2019-01-17T16:44:43.601Z,7.20
2019-01-17T16:47:24.931Z,7.10
2019-01-17T16:50:06.205Z,7.00
2019-01-17T16:52:46.880Z,6.90
2019-01-17T16:55:27.640Z,6.70
2019-01-17T16:58:08.392Z,6.70
2019-01-17T17:00:49.232Z,6.70
2019-01-17T17:03:30.643Z,6.60
2019-01-17T17:06:11.249Z,6.60
2019-01-17T17:08:51.938Z,6.60
2019-01-17T17:11:32.878Z,6.60
2019-01-17T17:14:14.389Z,6.50
2019-01-17T17:16:55.898Z,6.30
2019-01-17T17:19:37.289Z,6.20
2019-01-17T17:22:18.032Z,6.20
2019-01-17T17:24:57.432Z,6.10
2019-01-17T17:27:38.370Z,6.00
2019-01-17T17:30:19.332Z,6.00
2019-01-17T17:33:00.274Z,5.90
2019-01-17T17:35:41.660Z,5.90
2019-01-17T17:38:22.323Z,5.80
2019-01-17T17:41:03.234Z,5.80
2019-01-17T17:43:43.788Z,5.90
2019-01-17T17:46:24.456Z,5.90
2019-01-17T17:49:05.109Z,5.80
2019-01-17T17:51:46.589Z,5.70
2019-01-17T17:54:27.292Z,5.60
2019-01-17T17:57:07.916Z,5.60
2019-01-17T17:59:49.353Z,5.70
2019-01-17T18:05:25.312Z,5.60
2019-01-17T18:08:06.157Z,5.60
2019-01-17T18:10:46.962Z,5.50
2019-01-17T18:13:28.074Z,5.50
2019-01-17T18:16:08.688Z,5.70
2019-01-17T18:18:50.097Z,6.00
2019-01-17T18:21:30.811Z,6.20
2019-01-17T18:24:12.285Z,6.20
2019-01-17T18:26:53.664Z,6.20
2019-01-17T18:29:34.253Z,6.40
2019-01-17T18:32:15.156Z,6.60
2019-01-17T18:34:55.977Z,6.80
2019-01-17T18:37:36.847Z,7.10
2019-01-17T18:40:17.636Z,7.30
2019-01-17T18:42:58.263Z,7.50
2019-01-17T18:45:38.842Z,7.70
2019-01-17T18:48:19.517Z,7.90
2019-01-17T18:51:00.420Z,8.00
2019-01-17T18:53:39.901Z,8.00
2019-01-17T18:59:27.928Z,7.90
2019-01-17T19:02:08.705Z,7.80
2019-01-17T19:04:50.088Z,7.70
2019-01-17T19:07:31.477Z,7.70
2019-01-17T19:10:12.281Z,7.70
2019-01-17T19:12:53.788Z,7.70
2019-01-17T19:15:34.381Z,7.70
2019-01-17T19:18:15.724Z,7.80
2019-01-17T19:20:56.669Z,7.80
2019-01-17T19:23:37.233Z,7.70
2019-01-17T19:26:18.632Z,7.70
2019-01-17T19:28:59.484Z,7.70
2019-01-17T19:31:40.329Z,7.60
2019-01-17T19:34:21.096Z,7.70
2019-01-17T19:37:02.057Z,7.60
2019-01-17T19:39:41.529Z,7.50
2019-01-17T19:42:22.772Z,7.60
2019-01-17T19:45:04.704Z,7.50
2019-01-17T19:47:45.852Z,7.50
2019-01-17T19:50:27.393Z,7.40
2019-01-17T19:53:08.741Z,7.50
2019-01-17T19:55:50.151Z,7.40
2019-01-17T19:58:31.544Z,7.40
2019-01-17T20:01:12.144Z,7.40
2019-01-17T20:03:52.715Z,7.40
2019-01-17T20:06:34.121Z,7.40
2019-01-17T20:09:17.003Z,7.50
2019-01-17T20:11:57.825Z,7.50
2019-01-17T20:14:39.712Z,7.50
2019-01-17T20:17:20.425Z,7.50
2019-01-17T20:20:01.796Z,7.60
2019-01-17T20:22:43.224Z,7.60
2019-01-17T20:25:24.132Z,7.60
2019-01-17T20:28:04.765Z,7.70
2019-01-17T20:30:45.536Z,7.70
2019-01-17T20:33:26.184Z,7.70
2019-01-17T20:36:06.720Z,7.60
2019-01-17T20:38:47.696Z,7.60
2019-01-17T20:41:28.315Z,7.60
2019-01-17T20:44:09.104Z,7.50
2019-01-17T20:46:49.918Z,7.40
2019-01-17T20:49:29.500Z,7.40
2019-01-17T20:52:10.958Z,7.40
2019-01-17T20:54:50.379Z,7.30
2019-01-17T20:57:31.601Z,7.20
2019-01-17T21:00:12.445Z,7.20
2019-01-17T21:02:53.656Z,7.00
2019-01-17T21:05:33.324Z,7.00
2019-01-17T21:08:21.665Z,7.00
2019-01-17T21:11:02.845Z,6.90
2019-01-17T21:13:43.444Z,6.80
2019-01-17T21:16:24.213Z,6.90
2019-01-17T21:19:05.656Z,6.90
2019-01-17T21:21:45.092Z,6.90
2019-01-17T21:27:33.640Z,6.90
2019-01-17T21:30:14.366Z,6.80
2019-01-17T21:32:55.502Z,6.80
2019-01-17T21:35:36.535Z,6.80
2019-01-17T21:38:18.124Z,6.80
2019-01-17T21:40:59.504Z,6.80
2019-01-17T21:43:40.623Z,6.80
2019-01-17T21:46:22.081Z,6.80
2019-01-17T21:49:03.440Z,6.80
2019-01-17T21:51:44.044Z,6.80
2019-01-17T21:54:25.480Z,6.90
2019-01-17T21:57:07.017Z,6.80
2019-01-17T21:59:47.692Z,6.80
2019-01-17T22:02:29.067Z,6.90
2019-01-17T22:05:09.656Z,6.80
2019-01-17T22:07:50.256Z,6.80
2019-01-17T22:10:31.648Z,6.80
2019-01-17T22:13:12.520Z,6.80
2019-01-17T22:15:53.356Z,6.80
2019-01-17T22:18:34.669Z,6.90
2019-01-17T22:21:15.319Z,6.90
2019-01-17T22:23:54.747Z,6.90
2019-01-17T22:29:44.978Z,6.90
2019-01-17T22:32:25.749Z,6.80
2019-01-17T22:35:06.340Z,6.80
2019-01-17T22:37:46.876Z,6.90
2019-01-17T22:40:27.789Z,6.90
2019-01-17T22:43:08.627Z,6.90
2019-01-17T22:45:50.057Z,6.90
2019-01-17T22:48:30.840Z,6.90
2019-01-17T22:51:11.537Z,6.90
2019-01-17T22:53:52.529Z,6.90
2019-01-17T22:56:33.108Z,7.00
2019-01-17T22:59:13.975Z,7.00
2019-01-17T23:01:54.588Z,6.90
2019-01-17T23:04:35.135Z,6.90
2019-01-17T23:07:15.687Z,6.90
2019-01-17T23:09:56.499Z,6.90
2019-01-17T23:12:37.828Z,7.00
2019-01-17T23:15:18.474Z,7.00
2019-01-17T23:17:59.160Z,7.00
2019-01-17T23:20:40.661Z,7.00
2019-01-17T23:23:21.286Z,7.00
2019-01-17T23:26:02.707Z,7.00
2019-01-17T23:28:43.476Z,6.90
2019-01-17T23:31:24.420Z,6.90
2019-01-17T23:34:05.336Z,6.90
2019-01-17T23:36:48.849Z,6.90
2019-01-17T23:39:28.601Z,6.90
2019-01-17T23:42:09.491Z,6.80
2019-01-17T23:44:50.761Z,6.80
2019-01-17T23:47:31.601Z,6.70
2019-01-17T23:50:12.529Z,6.70
2019-01-17T23:52:53.092Z,6.60
2019-01-17T23:55:33.968Z,6.60
2019-01-17T23:58:14.856Z,6.60
